Terminal Aerodrome Forecast
Issued by NWS Lake Charles, LA

Home | Current Version | Previous Version | Text Only | Print | Product List | Glossary On
Versions: 1 2 3 4 5 6 7 8 9 10 11 12 13 14 15 16
000
FTUS44 KLCH 220500
TAFAEX
TAF
KAEX 220522Z 2206/2306 VRB05KT P6SM SCT035
     FM220800 VRB03KT 4SM BR SCT015 SCT050
     FM221400 VRB05KT P6SM FEW030 SCT250
     FM221900 VRB05KT P6SM VCTS SCT035CB BKN250=

USA.gov is the U.S. government's official web portal to all federal, state and local government web resources and services.